Time;durP1;ratioP1;P1;durP2;ratioP2;P2;SDS_P1;SDS_P2;PMS_P1;PMS_P2;Temp;Humidity;BMP_temperature;BMP_pressure;BME280_temperature;BME280_humidity;BME280_pressure;Samples;Min_cycle;Max_cycle;Signal;HPM_P1;HPM_P2
2023/05/13 00:02:03;;;;;;;5.80;4.00;;;;;;;;;;107786;282;39874;-36
2023/05/13 00:04:37;;;;;;;5.90;4.10;;;;;;;;;;107874;282;42940;-34
2023/05/13 00:07:11;;;;;;;6.60;4.50;;;;;;;;;;107874;282;42101;-35
2023/05/13 00:09:50;;;;;;;6.50;4.50;;;;;;;;;;107827;275;38833;-37
2023/05/13 00:12:25;;;;;;;6.80;4.40;;;;;;;;;;107834;275;39478;-37
2023/05/13 00:14:58;;;;;;;6.10;4.20;;;;;;;;;;107838;282;43131;-37
2023/05/13 00:17:36;;;;;;;6.50;4.60;;;;;;;;;;107864;282;42426;-37
2023/05/13 00:20:12;;;;;;;6.30;4.60;;;;;;;;;;107878;275;38901;-37
2023/05/13 00:22:45;;;;;;;6.30;4.60;;;;;;;;;;107696;282;192820;-37
2023/05/13 00:25:22;;;;;;;6.50;4.70;;;;;;;;;;107748;282;175646;-37
2023/05/13 00:27:57;;;;;;;6.60;4.90;;;;;;;;;;107850;282;42153;-37
2023/05/13 00:30:32;;;;;;;6.10;4.40;;;;;;;;;;107889;282;37820;-37
2023/05/13 00:33:07;;;;;;;6.70;5.10;;;;;;;;;;107802;282;39868;-37
2023/05/13 00:35:42;;;;;;;7.50;5.50;;;;;;;;;;107876;282;42888;-37
2023/05/13 00:38:18;;;;;;;7.50;6.00;;;;;;;;;;107840;282;42153;-37
2023/05/13 00:40:54;;;;;;;7.70;5.80;;;;;;;;;;107860;282;38933;-36
2023/05/13 00:43:30;;;;;;;7.40;5.20;;;;;;;;;;107793;282;40236;-36
2023/05/13 00:46:08;;;;;;;7.10;5.30;;;;;;;;;;107693;275;196016;-36
2023/05/13 00:48:43;;;;;;;7.00;5.30;;;;;;;;;;107829;282;42145;-36
2023/05/13 00:51:16;;;;;;;6.60;4.90;;;;;;;;;;107815;282;38940;-37
2023/05/13 00:53:52;;;;;;;6.50;5.00;;;;;;;;;;107769;286;39688;-37
2023/05/13 00:56:32;;;;;;;8.60;5.90;;;;;;;;;;107839;282;43058;-37
2023/05/13 00:59:07;;;;;;;8.70;6.00;;;;;;;;;;107685;283;175557;-37
2023/05/13 01:01:51;;;;;;;8.10;6.00;;;;;;;;;;107871;282;38784;-37
2023/05/13 01:04:38;;;;;;;7.60;5.60;;;;;;;;;;107802;282;39846;-36
2023/05/13 01:07:23;;;;;;;6.70;5.30;;;;;;;;;;107839;282;45102;-36
2023/05/13 01:10:08;;;;;;;7.70;5.70;;;;;;;;;;107843;282;42163;-36
2023/05/13 01:12:45;;;;;;;7.10;5.60;;;;;;;;;;107822;282;38799;-37
2023/05/13 01:15:25;;;;;;;7.00;5.50;;;;;;;;;;107413;280;528922;-35
2023/05/13 01:18:11;;;;;;;6.90;6.00;;;;;;;;;;107829;282;44301;-35
2023/05/13 01:20:46;;;;;;;7.30;5.90;;;;;;;;;;107833;275;43290;-37
2023/05/13 01:23:24;;;;;;;7.60;5.90;;;;;;;;;;107692;282;175297;-37
2023/05/13 01:25:59;;;;;;;7.90;6.30;;;;;;;;;;107901;282;39713;-35
2023/05/13 01:28:36;;;;;;;8.70;6.70;;;;;;;;;;107915;275;42998;-35
2023/05/13 01:31:14;;;;;;;8.40;6.40;;;;;;;;;;107928;282;41882;-36
2023/05/13 01:33:49;;;;;;;8.10;6.30;;;;;;;;;;107879;282;39986;-35
2023/05/13 01:36:28;;;;;;;8.20;6.70;;;;;;;;;;107919;275;39710;-36
2023/05/13 01:39:04;;;;;;;7.80;6.30;;;;;;;;;;107879;275;43971;-36
2023/05/13 01:41:39;;;;;;;7.50;6.40;;;;;;;;;;107951;282;43311;-36
2023/05/13 01:44:15;;;;;;;8.20;6.60;;;;;;;;;;107887;275;40201;-36
2023/05/13 01:46:52;;;;;;;7.30;6.20;;;;;;;;;;107912;282;39435;-36
2023/05/13 01:49:26;;;;;;;8.00;6.60;;;;;;;;;;107908;282;43262;-36
2023/05/13 01:52:03;;;;;;;8.30;6.30;;;;;;;;;;107868;282;42145;-36
2023/05/13 01:54:36;;;;;;;8.30;6.50;;;;;;;;;;107849;282;38776;-37
2023/05/13 01:57:13;;;;;;;7.90;6.40;;;;;;;;;;107940;275;39731;-34
2023/05/13 01:59:46;;;;;;;8.60;6.80;;;;;;;;;;107891;282;42994;-35
2023/05/13 02:02:22;;;;;;;7.50;6.50;;;;;;;;;;107819;282;43392;-35
2023/05/13 02:04:57;;;;;;;8.40;7.10;;;;;;;;;;107804;282;38811;-35
2023/05/13 02:07:33;;;;;;;8.90;7.40;;;;;;;;;;107831;282;39731;-37
2023/05/13 02:10:09;;;;;;;7.90;6.80;;;;;;;;;;107826;283;43219;-36
2023/05/13 02:12:44;;;;;;;8.40;7.10;;;;;;;;;;107844;275;42322;-35
2023/05/13 02:15:19;;;;;;;9.40;7.10;;;;;;;;;;107697;275;175576;-35
2023/05/13 02:17:53;;;;;;;8.90;7.30;;;;;;;;;;107871;275;39805;-35
2023/05/13 02:20:27;;;;;;;8.70;7.30;;;;;;;;;;107834;282;44136;-34
2023/05/13 02:23:04;;;;;;;8.30;7.10;;;;;;;;;;107841;282;42137;-36
2023/05/13 02:25:40;;;;;;;8.30;7.00;;;;;;;;;;107813;282;38781;-37
2023/05/13 02:28:16;;;;;;;8.60;7.30;;;;;;;;;;107826;282;39752;-35
2023/05/13 02:30:52;;;;;;;7.80;6.90;;;;;;;;;;107847;282;42882;-36
2023/05/13 02:33:27;;;;;;;8.50;7.30;;;;;;;;;;107822;282;42171;-36
2023/05/13 02:36:00;;;;;;;8.00;7.20;;;;;;;;;;107826;282;38803;-35
2023/05/13 02:38:38;;;;;;;9.00;7.20;;;;;;;;;;107878;280;40941;-36
2023/05/13 02:41:12;;;;;;;8.40;7.30;;;;;;;;;;107840;282;42899;-36
2023/05/13 02:43:46;;;;;;;7.90;7.00;;;;;;;;;;107841;275;42119;-37
2023/05/13 02:46:20;;;;;;;8.20;6.90;;;;;;;;;;107806;279;38736;-36
2023/05/13 02:48:54;;;;;;;9.10;7.40;;;;;;;;;;107890;275;39445;-36
2023/05/13 02:51:29;;;;;;;8.90;7.30;;;;;;;;;;107852;282;42862;-36
2023/05/13 02:54:07;;;;;;;8.50;7.50;;;;;;;;;;107731;275;175618;-35
2023/05/13 02:56:44;;;;;;;9.00;7.70;;;;;;;;;;107823;282;38842;-34
2023/05/13 02:59:21;;;;;;;9.10;7.70;;;;;;;;;;107883;282;39833;-34
2023/05/13 03:01:56;;;;;;;8.20;7.00;;;;;;;;;;107766;281;42872;-34
2023/05/13 03:04:31;;;;;;;8.20;7.30;;;;;;;;;;107805;284;42313;-35
2023/05/13 03:07:09;;;;;;;8.10;7.20;;;;;;;;;;107821;279;39961;-36
2023/05/13 03:09:45;;;;;;;8.70;7.30;;;;;;;;;;107860;275;39712;-36
2023/05/13 03:12:23;;;;;;;8.20;7.30;;;;;;;;;;107846;283;44014;-36
2023/05/13 03:14:58;;;;;;;8.30;7.10;;;;;;;;;;107890;282;42512;-33
2023/05/13 03:17:33;;;;;;;8.50;7.50;;;;;;;;;;107852;282;38826;-33
2023/05/13 03:20:11;;;;;;;9.00;7.70;;;;;;;;;;107902;282;41105;-35
2023/05/13 03:22:45;;;;;;;8.70;7.70;;;;;;;;;;107896;282;42878;-36
2023/05/13 03:25:20;;;;;;;9.30;7.50;;;;;;;;;;107875;275;42121;-36
2023/05/13 03:27:54;;;;;;;8.60;7.70;;;;;;;;;;107789;282;38938;-36
2023/05/13 03:30:29;;;;;;;9.30;7.70;;;;;;;;;;107816;275;39484;-36
2023/05/13 03:33:06;;;;;;;8.70;7.80;;;;;;;;;;107809;282;42631;-36
2023/05/13 03:35:40;;;;;;;8.70;7.80;;;;;;;;;;107820;275;42726;-36
2023/05/13 03:38:15;;;;;;;8.90;7.90;;;;;;;;;;107794;282;45708;-36
2023/05/13 03:40:49;;;;;;;9.30;8.10;;;;;;;;;;107697;275;175086;-35
2023/05/13 03:43:22;;;;;;;9.00;8.10;;;;;;;;;;107816;282;43989;-35
2023/05/13 03:45:57;;;;;;;8.60;7.70;;;;;;;;;;107802;282;42175;-35
2023/05/13 03:48:33;;;;;;;9.10;7.90;;;;;;;;;;107785;280;45513;-35
2023/05/13 03:51:08;;;;;;;9.20;8.30;;;;;;;;;;107794;275;39896;-35
2023/05/13 03:53:43;;;;;;;8.70;7.50;;;;;;;;;;107819;275;42876;-35
2023/05/13 03:56:20;;;;;;;8.60;7.70;;;;;;;;;;107845;280;42158;-35
2023/05/13 03:58:54;;;;;;;8.30;7.40;;;;;;;;;;107879;283;45606;-34
2023/05/13 04:01:29;;;;;;;9.50;7.90;;;;;;;;;;107801;283;40700;-34
2023/05/13 04:04:04;;;;;;;8.60;7.60;;;;;;;;;;106995;283;895010;-33
2023/05/13 04:06:41;;;;;;;9.40;8.40;;;;;;;;;;107776;283;42172;-35
2023/05/13 04:09:16;;;;;;;9.40;8.10;;;;;;;;;;107734;283;44674;-35
2023/05/13 04:11:56;;;;;;;8.90;8.00;;;;;;;;;;107764;283;39834;-35
2023/05/13 04:14:35;;;;;;;9.00;8.10;;;;;;;;;;107758;275;42927;-34
2023/05/13 04:17:08;;;;;;;9.50;8.50;;;;;;;;;;107729;283;42272;-35
2023/05/13 04:19:46;;;;;;;9.40;8.40;;;;;;;;;;107776;283;45061;-35
2023/05/13 04:22:21;;;;;;;9.50;8.30;;;;;;;;;;107748;276;39763;-35
2023/05/13 04:24:59;;;;;;;9.50;8.40;;;;;;;;;;107766;283;42623;-35
2023/05/13 04:27:34;;;;;;;9.00;8.10;;;;;;;;;;107725;275;42344;-36
2023/05/13 04:30:11;;;;;;;9.30;8.20;;;;;;;;;;107781;283;40014;-35
2023/05/13 04:32:48;;;;;;;9.10;8.00;;;;;;;;;;107777;283;39678;-35
2023/05/13 04:35:23;;;;;;;9.50;8.30;;;;;;;;;;107799;283;44658;-35
2023/05/13 04:38:01;;;;;;;9.10;8.00;;;;;;;;;;107768;283;43270;-34
2023/05/13 04:40:37;;;;;;;9.20;8.20;;;;;;;;;;107763;283;38813;-35
2023/05/13 04:43:16;;;;;;;8.90;8.00;;;;;;;;;;107814;283;40793;-35
2023/05/13 04:45:50;;;;;;;9.20;8.00;;;;;;;;;;107785;275;42870;-36
2023/05/13 04:48:26;;;;;;;8.80;7.90;;;;;;;;;;107734;275;42403;-37
2023/05/13 04:51:02;;;;;;;9.10;8.20;;;;;;;;;;107804;283;39127;-37
2023/05/13 04:53:36;;;;;;;9.50;8.30;;;;;;;;;;107857;275;39837;-36
2023/05/13 04:56:12;;;;;;;9.00;8.00;;;;;;;;;;107905;284;43021;-36
2023/05/13 04:58:48;;;;;;;9.50;8.40;;;;;;;;;;107787;275;42379;-36
2023/05/13 05:01:25;;;;;;;9.00;8.00;;;;;;;;;;107824;275;39174;-36
2023/05/13 05:04:01;;;;;;;9.40;8.10;;;;;;;;;;107866;282;39679;-37
2023/05/13 05:06:36;;;;;;;9.20;8.10;;;;;;;;;;107868;282;43922;-37
2023/05/13 05:09:11;;;;;;;9.10;8.20;;;;;;;;;;107789;282;44359;-37
2023/05/13 05:11:45;;;;;;;9.40;8.40;;;;;;;;;;107846;282;38933;-37
2023/05/13 05:14:22;;;;;;;9.40;8.40;;;;;;;;;;107784;282;39916;-36
2023/05/13 05:16:59;;;;;;;9.10;8.20;;;;;;;;;;107852;282;42917;-37
2023/05/13 05:19:35;;;;;;;9.30;8.10;;;;;;;;;;107813;275;42260;-37
2023/05/13 05:22:09;;;;;;;9.50;8.50;;;;;;;;;;107851;282;38798;-37
2023/05/13 05:24:46;;;;;;;9.70;8.60;;;;;;;;;;107809;275;39441;-37
2023/05/13 05:27:23;;;;;;;9.50;8.50;;;;;;;;;;107814;282;42933;-36
2023/05/13 05:29:57;;;;;;;9.80;8.80;;;;;;;;;;107811;282;42258;-36
2023/05/13 05:32:32;;;;;;;9.30;8.20;;;;;;;;;;107954;282;38766;-37
2023/05/13 05:35:07;;;;;;;9.70;8.20;;;;;;;;;;107934;275;40975;-37
2023/05/13 05:37:46;;;;;;;9.20;8.20;;;;;;;;;;107934;282;42926;-37
2023/05/13 05:40:21;;;;;;;9.30;8.30;;;;;;;;;;107860;282;42142;-37
2023/05/13 05:42:56;;;;;;;9.00;7.80;;;;;;;;;;107957;282;38809;-37
2023/05/13 05:45:35;;;;;;;9.00;8.00;;;;;;;;;;107921;282;40185;-37
2023/05/13 05:48:09;;;;;;;9.50;8.50;;;;;;;;;;107916;282;42890;-37
2023/05/13 05:50:49;;;;;;;9.40;8.30;;;;;;;;;;107850;275;42318;-37
2023/05/13 05:53:24;;;;;;;9.10;8.10;;;;;;;;;;107887;282;38920;-37
2023/05/13 05:56:00;;;;;;;9.40;8.40;;;;;;;;;;107909;282;39701;-37
2023/05/13 05:58:37;;;;;;;9.50;8.20;;;;;;;;;;107924;282;42905;-37
2023/05/13 06:01:17;;;;;;;9.10;7.90;;;;;;;;;;107909;283;41931;-37
2023/05/13 06:03:51;;;;;;;;;;;;;;;;;;107955;282;38838;-37
2023/05/13 06:06:28;;;;;;;9.40;8.30;;;;;;;;;;107894;282;40785;-36
2023/05/13 06:09:04;;;;;;;9.50;8.10;;;;;;;;;;107881;282;42863;-36
2023/05/13 06:11:38;;;;;;;8.70;7.70;;;;;;;;;;107886;282;42168;-37
2023/05/13 06:14:13;;;;;;;8.90;8.00;;;;;;;;;;107908;286;38865;-37
2023/05/13 06:16:50;;;;;;;9.70;8.30;;;;;;;;;;107948;282;39851;-37
2023/05/13 06:19:28;;;;;;;9.10;8.10;;;;;;;;;;107826;275;175563;-37
2023/05/13 06:22:03;;;;;;;9.30;8.10;;;;;;;;;;107994;282;48099;-37
2023/05/13 06:24:37;;;;;;;9.40;8.30;;;;;;;;;;107926;283;38799;-37
2023/05/13 06:27:13;;;;;;;9.20;8.00;;;;;;;;;;107934;282;39703;-37
2023/05/13 06:29:51;;;;;;;9.70;8.10;;;;;;;;;;107930;275;42602;-36
2023/05/13 06:32:27;;;;;;;8.50;7.60;;;;;;;;;;107742;282;175585;-36
2023/05/13 06:35:00;;;;;;;9.10;8.00;;;;;;;;;;107962;275;38919;-36
2023/05/13 06:37:35;;;;;;;9.00;7.70;;;;;;;;;;107940;283;39716;-36
2023/05/13 06:40:12;;;;;;;8.60;7.50;;;;;;;;;;107804;282;175036;-36
2023/05/13 06:42:45;;;;;;;8.70;7.70;;;;;;;;;;108087;279;49031;-37
2023/05/13 06:45:22;;;;;;;8.70;7.60;;;;;;;;;;107929;283;38866;-37
2023/05/13 06:47:58;;;;;;;8.90;7.70;;;;;;;;;;107824;275;39726;-35
2023/05/13 06:50:33;;;;;;;8.80;7.40;;;;;;;;;;107848;282;42850;-35
2023/05/13 06:53:10;;;;;;;8.50;7.40;;;;;;;;;;107792;282;48779;-35
2023/05/13 06:55:44;;;;;;;9.30;7.60;;;;;;;;;;107861;275;39015;-35
2023/05/13 06:58:19;;;;;;;9.00;7.60;;;;;;;;;;107868;282;39766;-35
2023/05/13 07:00:53;;;;;;;8.70;7.70;;;;;;;;;;107863;283;42981;-35
2023/05/13 07:03:27;;;;;;;8.70;7.50;;;;;;;;;;107688;282;175522;-35
2023/05/13 07:06:00;;;;;;;8.00;7.20;;;;;;;;;;107880;287;39932;-35
2023/05/13 07:08:33;;;;;;;8.50;7.60;;;;;;;;;;107858;283;39560;-35
2023/05/13 07:11:07;;;;;;;9.10;7.60;;;;;;;;;;107857;282;42846;-36
2023/05/13 07:13:40;;;;;;;8.50;7.40;;;;;;;;;;108012;283;49524;-36
2023/05/13 07:16:15;;;;;;;9.80;7.70;;;;;;;;;;107917;282;38832;-37
2023/05/13 07:18:48;;;;;;;9.40;7.30;;;;;;;;;;107889;282;39790;-36
2023/05/13 07:21:21;;;;;;;9.30;8.10;;;;;;;;;;107877;282;43990;-36
2023/05/13 07:23:54;;;;;;;9.40;7.60;;;;;;;;;;107816;282;49408;-36
2023/05/13 07:26:28;;;;;;;9.10;7.30;;;;;;;;;;107905;287;38538;-36
2023/05/13 07:29:01;;;;;;;9.50;8.00;;;;;;;;;;107888;286;39807;-37
2023/05/13 07:31:34;;;;;;;9.80;7.90;;;;;;;;;;107898;282;42960;-36
2023/05/13 07:34:08;;;;;;;9.70;7.90;;;;;;;;;;107731;282;201155;-35
2023/05/13 07:36:41;;;;;;;10.20;8.00;;;;;;;;;;107866;283;38812;-35
2023/05/13 07:39:14;;;;;;;9.30;7.70;;;;;;;;;;107927;282;40874;-35
2023/05/13 07:41:47;;;;;;;10.70;8.10;;;;;;;;;;107896;282;43003;-35
2023/05/13 07:44:20;;;;;;;8.90;7.30;;;;;;;;;;107849;282;48879;-35
2023/05/13 07:46:54;;;;;;;10.20;7.60;;;;;;;;;;107880;282;38786;-34
2023/05/13 07:49:27;;;;;;;10.40;7.90;;;;;;;;;;107785;282;175177;-37
2023/05/13 07:52:00;;;;;;;9.70;7.60;;;;;;;;;;107878;275;44238;-36
2023/05/13 07:54:34;;;;;;;9.60;7.80;;;;;;;;;;107825;282;49301;-34
2023/05/13 07:57:08;;;;;;;10.20;7.40;;;;;;;;;;107899;282;38883;-33
2023/05/13 07:59:41;;;;;;;11.60;7.50;;;;;;;;;;107902;282;39757;-35
2023/05/13 08:02:17;;;;;;;9.80;7.30;;;;;;;;;;107941;282;42889;-35
2023/05/13 08:04:51;;;;;;;9.30;7.40;;;;;;;;;;107869;282;48920;-35
2023/05/13 08:07:24;;;;;;;8.90;7.00;;;;;;;;;;107895;285;38867;-35
2023/05/13 08:09:58;;;;;;;9.00;6.80;;;;;;;;;;107770;280;175519;-36
2023/05/13 08:12:31;;;;;;;9.90;7.20;;;;;;;;;;107863;282;42921;-37
2023/05/13 08:15:07;;;;;;;8.90;6.90;;;;;;;;;;107826;282;49001;-37
2023/05/13 08:17:40;;;;;;;9.20;7.10;;;;;;;;;;107912;282;38798;-37
2023/05/13 08:20:14;;;;;;;8.60;7.20;;;;;;;;;;107863;282;39987;-37
2023/05/13 08:22:48;;;;;;;9.20;6.90;;;;;;;;;;107906;282;44073;-37
2023/05/13 08:25:21;;;;;;;8.40;6.70;;;;;;;;;;107852;282;48996;-35
2023/05/13 08:27:55;;;;;;;8.60;6.90;;;;;;;;;;107901;275;38922;-35
2023/05/13 08:30:28;;;;;;;8.60;6.60;;;;;;;;;;107881;282;40807;-36
2023/05/13 08:33:01;;;;;;;7.90;6.00;;;;;;;;;;107880;282;42852;-37
2023/05/13 08:35:35;;;;;;;8.20;6.90;;;;;;;;;;107843;282;47968;-36
2023/05/13 08:38:10;;;;;;;9.10;6.50;;;;;;;;;;107913;282;38860;-37
2023/05/13 08:40:44;;;;;;;7.70;6.00;;;;;;;;;;107883;282;41051;-37
2023/05/13 08:43:18;;;;;;;7.80;5.90;;;;;;;;;;107874;282;44069;-38
2023/05/13 08:45:54;;;;;;;7.50;6.00;;;;;;;;;;107830;283;48979;-38
2023/05/13 08:48:28;;;;;;;8.40;6.10;;;;;;;;;;107853;282;39928;-37
2023/05/13 08:51:02;;;;;;;8.00;6.20;;;;;;;;;;107843;282;39751;-38
2023/05/13 08:53:38;;;;;;;8.40;6.20;;;;;;;;;;107930;282;42844;-37
2023/05/13 08:56:12;;;;;;;7.20;5.90;;;;;;;;;;107938;282;47962;-38
2023/05/13 08:58:46;;;;;;;7.60;5.60;;;;;;;;;;107896;282;39794;-37
2023/05/13 09:01:19;;;;;;;8.20;6.00;;;;;;;;;;107722;283;175500;-37
2023/05/13 09:04:01;;;;;;;8.00;5.90;;;;;;;;;;107848;282;42862;-37
2023/05/13 09:06:34;;;;;;;7.70;5.70;;;;;;;;;;107824;282;49401;-37
2023/05/13 09:09:08;;;;;;;7.80;5.40;;;;;;;;;;107832;275;38858;-37
2023/05/13 09:11:42;;;;;;;9.20;5.90;;;;;;;;;;107864;282;39816;-38
2023/05/13 09:14:20;;;;;;;6.80;5.70;;;;;;;;;;107444;282;480603;-37
2023/05/13 09:16:57;;;;;;;7.00;5.20;;;;;;;;;;107692;284;50072;-37
2023/05/13 09:19:33;;;;;;;7.60;5.30;;;;;;;;;;107820;282;38820;-38
2023/05/13 09:22:09;;;;;;;6.50;5.20;;;;;;;;;;107731;282;175505;-38
2023/05/13 09:24:55;;;;;;;7.30;5.20;;;;;;;;;;107872;282;43149;-37
2023/05/13 09:27:40;;;;;;;7.30;5.10;;;;;;;;;;107897;275;48420;-36
2023/05/13 09:30:14;;;;;;;6.50;5.00;;;;;;;;;;107965;282;39067;-36
2023/05/13 09:33:06;;;;;;;6.90;4.90;;;;;;;;;;107966;283;39712;-36
2023/05/13 09:35:42;;;;;;;6.30;4.70;;;;;;;;;;107950;283;43890;-36
2023/05/13 09:38:22;;;;;;;6.20;4.60;;;;;;;;;;107945;283;42131;-37
2023/05/13 09:40:57;;;;;;;5.80;4.40;;;;;;;;;;107951;287;38887;-37
2023/05/13 09:43:35;;;;;;;5.70;4.30;;;;;;;;;;107985;282;39993;-38
2023/05/13 09:46:10;;;;;;;6.50;4.20;;;;;;;;;;107944;282;42863;-37
2023/05/13 09:48:46;;;;;;;6.80;4.40;;;;;;;;;;107966;282;41885;-37
2023/05/13 09:51:22;;;;;;;6.00;3.90;;;;;;;;;;107968;282;38792;-37
2023/05/13 09:54:05;;;;;;;7.60;4.20;;;;;;;;;;107965;283;39693;-37
2023/05/13 09:56:38;;;;;;;6.50;4.10;;;;;;;;;;107945;282;42943;-36
2023/05/13 09:59:13;;;;;;;5.70;4.00;;;;;;;;;;107986;283;42178;-35
2023/05/13 10:01:48;;;;;;;5.30;3.80;;;;;;;;;;107941;282;38763;-40
2023/05/13 10:04:21;;;;;;;6.20;3.60;;;;;;;;;;107992;283;39459;-36
2023/05/13 10:06:57;;;;;;;5.50;3.70;;;;;;;;;;107892;283;42865;-36
2023/05/13 10:09:36;;;;;;;6.00;3.90;;;;;;;;;;107947;283;42181;-37
2023/05/13 10:12:13;;;;;;;6.10;3.80;;;;;;;;;;107966;283;39972;-36
2023/05/13 10:14:48;;;;;;;5.10;3.60;;;;;;;;;;108007;283;39434;-36
2023/05/13 10:17:24;;;;;;;5.80;3.60;;;;;;;;;;107873;275;43853;-37
2023/05/13 10:19:59;;;;;;;5.10;3.40;;;;;;;;;;107995;283;42265;-37
2023/05/13 10:22:34;;;;;;;5.10;3.30;;;;;;;;;;107838;287;39053;-36
2023/05/13 10:25:10;;;;;;;4.90;3.40;;;;;;;;;;107892;282;39781;-37
2023/05/13 10:27:45;;;;;;;5.70;3.30;;;;;;;;;;107841;282;42838;-37
2023/05/13 10:30:25;;;;;;;4.70;3.20;;;;;;;;;;107824;282;42115;-35
2023/05/13 10:33:00;;;;;;;5.20;3.20;;;;;;;;;;107863;275;39855;-36
2023/05/13 10:35:40;;;;;;;5.30;3.20;;;;;;;;;;107903;282;39846;-37
2023/05/13 10:38:28;;;;;;;4.60;3.20;;;;;;;;;;107766;282;42839;-34
2023/05/13 10:41:30;;;;;;;4.70;3.00;;;;;;;;;;107851;282;42516;-36
2023/05/13 10:44:02;;;;;;;;;;;;;;;;;;107904;282;38815;-37
2023/05/13 10:46:38;;;;;;;4.60;3.00;;;;;;;;;;107869;282;40006;-38
2023/05/13 10:49:17;;;;;;;4.70;3.00;;;;;;;;;;107883;282;48834;-37
2023/05/13 10:51:51;;;;;;;4.50;2.90;;;;;;;;;;107802;282;43149;-38
2023/05/13 10:54:25;;;;;;;4.30;2.70;;;;;;;;;;107784;283;38805;-37
2023/05/13 10:57:02;;;;;;;4.50;2.90;;;;;;;;;;107811;282;39845;-38
2023/05/13 10:59:37;;;;;;;4.80;2.70;;;;;;;;;;107850;282;50006;-37
2023/05/13 11:02:24;;;;;;;4.90;2.80;;;;;;;;;;107875;275;42143;-35
2023/05/13 11:05:07;;;;;;;4.50;2.80;;;;;;;;;;107889;282;38548;-38
2023/05/13 11:07:56;;;;;;;4.50;2.60;;;;;;;;;;107852;275;39457;-38
2023/05/13 11:10:32;;;;;;;4.70;2.60;;;;;;;;;;107883;282;43240;-37
2023/05/13 11:13:23;;;;;;;4.20;2.50;;;;;;;;;;107886;283;42222;-37
2023/05/13 11:15:57;;;;;;;5.80;2.80;;;;;;;;;;107901;282;38963;-37
2023/05/13 11:18:38;;;;;;;4.10;2.30;;;;;;;;;;107802;282;39735;-37
2023/05/13 11:21:12;;;;;;;6.00;2.70;;;;;;;;;;107847;282;42937;-36
2023/05/13 11:23:58;;;;;;;4.30;2.50;;;;;;;;;;107896;282;42139;-36
2023/05/13 11:26:48;;;;;;;4.70;2.30;;;;;;;;;;107809;282;38794;-36
2023/05/13 11:29:33;;;;;;;4.10;2.40;;;;;;;;;;107771;282;39861;-37
2023/05/13 11:32:08;;;;;;;4.50;2.40;;;;;;;;;;107894;282;44393;-36
2023/05/13 11:34:53;;;;;;;4.20;2.40;;;;;;;;;;107862;282;42493;-36
2023/05/13 11:37:31;;;;;;;4.30;2.40;;;;;;;;;;107847;282;38550;-35
2023/05/13 11:40:08;;;;;;;4.40;2.20;;;;;;;;;;107827;282;39733;-36
2023/05/13 11:42:43;;;;;;;4.70;2.40;;;;;;;;;;107868;282;42914;-34
2023/05/13 11:45:17;;;;;;;4.60;2.20;;;;;;;;;;107827;282;42313;-35
2023/05/13 11:47:54;;;;;;;4.40;2.50;;;;;;;;;;107834;282;38806;-37
2023/05/13 11:50:31;;;;;;;5.90;2.20;;;;;;;;;;107817;282;46355;-38
2023/05/13 11:53:07;;;;;;;4.70;2.30;;;;;;;;;;107791;282;175405;-36
2023/05/13 11:55:41;;;;;;;4.10;2.20;;;;;;;;;;107844;275;42129;-36
2023/05/13 11:58:16;;;;;;;4.90;2.30;;;;;;;;;;107866;283;39865;-34
2023/05/13 12:00:52;;;;;;;4.20;2.20;;;;;;;;;;107870;282;39666;-37
2023/05/13 12:03:30;;;;;;;4.70;2.40;;;;;;;;;;107873;275;44041;-38
2023/05/13 12:06:05;;;;;;;4.30;2.20;;;;;;;;;;107832;282;42375;-39
2023/05/13 12:08:46;;;;;;;4.30;2.50;;;;;;;;;;107150;282;892303;-38
2023/05/13 12:11:19;;;;;;;4.40;2.30;;;;;;;;;;107881;275;39691;-43
2023/05/13 12:13:53;;;;;;;4.00;1.90;;;;;;;;;;107873;282;43015;-36
2023/05/13 12:16:27;;;;;;;4.10;2.10;;;;;;;;;;107849;282;42233;-37
2023/05/13 12:19:06;;;;;;;4.00;2.20;;;;;;;;;;107858;274;38721;-38
2023/05/13 12:21:43;;;;;;;3.80;2.10;;;;;;;;;;107882;282;39450;-37
2023/05/13 12:24:24;;;;;;;4.30;2.50;;;;;;;;;;107846;282;43949;-37
2023/05/13 12:27:09;;;;;;;4.40;2.40;;;;;;;;;;107842;282;42433;-37
2023/05/13 12:29:44;;;;;;;4.30;2.30;;;;;;;;;;107866;275;38933;-37
2023/05/13 12:32:19;;;;;;;4.80;2.30;;;;;;;;;;107913;282;39717;-37
2023/05/13 12:34:54;;;;;;;4.10;2.30;;;;;;;;;;107889;282;43975;-37
2023/05/13 12:37:27;;;;;;;4.40;2.30;;;;;;;;;;107892;282;42402;-37
2023/05/13 12:40:14;;;;;;;3.80;2.20;;;;;;;;;;107855;282;38890;-37
2023/05/13 12:42:48;;;;;;;3.70;2.10;;;;;;;;;;107894;282;40055;-37
2023/05/13 12:45:22;;;;;;;3.80;2.10;;;;;;;;;;107925;282;44432;-37
2023/05/13 12:47:58;;;;;;;3.90;2.00;;;;;;;;;;107920;282;42121;-37
2023/05/13 12:50:31;;;;;;;3.80;2.10;;;;;;;;;;107867;282;39372;-37
2023/05/13 12:53:05;;;;;;;4.00;2.10;;;;;;;;;;107883;282;39689;-38
2023/05/13 12:55:38;;;;;;;4.30;2.30;;;;;;;;;;107865;287;42924;-38
2023/05/13 12:58:12;;;;;;;4.20;2.60;;;;;;;;;;107857;282;42060;-38
2023/05/13 13:00:46;;;;;;;4.50;2.60;;;;;;;;;;107879;282;39037;-38
2023/05/13 13:03:20;;;;;;;4.90;3.00;;;;;;;;;;107906;275;39794;-38
2023/05/13 13:05:56;;;;;;;4.30;2.90;;;;;;;;;;107918;282;42928;-38
2023/05/13 13:08:30;;;;;;;4.10;2.50;;;;;;;;;;107894;282;43248;-38
2023/05/13 13:11:04;;;;;;;4.40;2.50;;;;;;;;;;107835;283;38922;-38
2023/05/13 13:13:37;;;;;;;4.70;2.60;;;;;;;;;;107883;282;39770;-39
2023/05/13 13:16:12;;;;;;;3.80;2.30;;;;;;;;;;107837;282;43097;-38
2023/05/13 13:18:50;;;;;;;4.60;2.40;;;;;;;;;;107859;282;43296;-38
2023/05/13 13:21:30;;;;;;;4.70;2.30;;;;;;;;;;107791;282;40904;-36
2023/05/13 13:24:06;;;;;;;4.70;2.70;;;;;;;;;;107839;282;39704;-37
2023/05/13 13:26:39;;;;;;;4.10;2.50;;;;;;;;;;107853;282;44031;-38
2023/05/13 13:29:13;;;;;;;4.30;2.30;;;;;;;;;;107893;287;42282;-39
2023/05/13 13:31:46;;;;;;;4.20;2.40;;;;;;;;;;107906;282;38818;-39
2023/05/13 13:34:20;;;;;;;4.60;2.50;;;;;;;;;;107973;283;39733;-39
2023/05/13 13:36:54;;;;;;;4.00;2.20;;;;;;;;;;107950;283;44054;-39
2023/05/13 13:39:30;;;;;;;4.10;2.40;;;;;;;;;;107959;283;42136;-39
2023/05/13 13:42:05;;;;;;;4.20;2.30;;;;;;;;;;107900;282;40012;-39
2023/05/13 13:44:38;;;;;;;3.70;2.10;;;;;;;;;;107992;283;39715;-37
2023/05/13 13:47:12;;;;;;;3.80;2.10;;;;;;;;;;107938;283;43169;-38
2023/05/13 13:49:45;;;;;;;3.50;2.00;;;;;;;;;;107995;283;43294;-37
2023/05/13 13:52:19;;;;;;;3.90;2.20;;;;;;;;;;107887;282;38754;-39
2023/05/13 13:54:55;;;;;;;3.70;2.20;;;;;;;;;;107914;275;39763;-38
2023/05/13 13:57:28;;;;;;;3.70;2.10;;;;;;;;;;107880;282;42896;-37
2023/05/13 14:00:01;;;;;;;3.90;2.10;;;;;;;;;;107884;283;42181;-38
2023/05/13 14:02:36;;;;;;;4.60;2.20;;;;;;;;;;107827;282;38814;-38
2023/05/13 14:05:11;;;;;;;3.90;2.10;;;;;;;;;;107890;282;41944;-38
2023/05/13 14:07:45;;;;;;;3.80;2.10;;;;;;;;;;107918;282;43290;-38
2023/05/13 14:10:18;;;;;;;3.80;2.30;;;;;;;;;;107862;282;42125;-38
2023/05/13 14:12:52;;;;;;;3.80;2.20;;;;;;;;;;107872;275;38784;-38
2023/05/13 14:15:27;;;;;;;4.00;2.20;;;;;;;;;;107890;282;39728;-38
2023/05/13 14:18:00;;;;;;;4.10;2.30;;;;;;;;;;107905;282;42856;-38
2023/05/13 14:20:34;;;;;;;4.10;2.10;;;;;;;;;;107916;283;42154;-37
2023/05/13 14:23:07;;;;;;;4.30;2.20;;;;;;;;;;107233;275;892852;-38
2023/05/13 14:25:40;;;;;;;4.30;2.40;;;;;;;;;;107914;282;39745;-37
2023/05/13 14:28:14;;;;;;;5.20;2.30;;;;;;;;;;107937;282;42929;-38
2023/05/13 14:30:47;;;;;;;4.70;2.20;;;;;;;;;;107879;282;42171;-37
2023/05/13 14:33:20;;;;;;;4.60;2.40;;;;;;;;;;107866;282;39887;-37
2023/05/13 14:35:53;;;;;;;4.80;2.40;;;;;;;;;;107917;282;39735;-37
2023/05/13 14:38:27;;;;;;;5.40;2.20;;;;;;;;;;107768;275;175451;-38
2023/05/13 14:41:00;;;;;;;5.00;2.40;;;;;;;;;;107894;282;43343;-38
2023/05/13 14:43:33;;;;;;;5.70;2.50;;;;;;;;;;107827;282;38785;-38
2023/05/13 14:46:07;;;;;;;7.40;2.30;;;;;;;;;;107856;282;39738;-38
2023/05/13 14:48:41;;;;;;;6.40;2.20;;;;;;;;;;107878;282;43038;-38
2023/05/13 14:51:15;;;;;;;7.10;2.60;;;;;;;;;;107910;282;42221;-38
2023/05/13 14:53:48;;;;;;;5.60;2.30;;;;;;;;;;107849;282;38583;-38
2023/05/13 14:56:21;;;;;;;7.50;2.20;;;;;;;;;;107884;286;39719;-38
2023/05/13 14:58:54;;;;;;;4.70;2.20;;;;;;;;;;107823;282;44171;-39
2023/05/13 15:01:29;;;;;;;6.50;2.40;;;;;;;;;;107910;282;42232;-38
2023/05/13 15:04:02;;;;;;;5.20;2.40;;;;;;;;;;107705;282;175461;-38
2023/05/13 15:06:37;;;;;;;4.30;1.90;;;;;;;;;;107907;282;39905;-40
2023/05/13 15:09:10;;;;;;;4.20;2.10;;;;;;;;;;107901;275;44055;-37
2023/05/13 15:11:43;;;;;;;5.00;2.10;;;;;;;;;;107226;283;893803;-38
2023/05/13 15:14:16;;;;;;;4.50;2.30;;;;;;;;;;107869;282;38944;-38
2023/05/13 15:16:50;;;;;;;4.10;2.30;;;;;;;;;;107915;282;40929;-38
2023/05/13 15:19:23;;;;;;;4.80;2.20;;;;;;;;;;107911;282;42908;-39
2023/05/13 15:21:56;;;;;;;5.60;2.30;;;;;;;;;;107902;282;43313;-38
2023/05/13 15:24:30;;;;;;;4.60;2.30;;;;;;;;;;107919;282;39929;-38
2023/05/13 15:27:03;;;;;;;4.90;2.20;;;;;;;;;;107924;282;39707;-38
2023/05/13 15:29:36;;;;;;;4.40;2.10;;;;;;;;;;107895;282;42872;-39
2023/05/13 15:32:12;;;;;;;5.00;2.20;;;;;;;;;;107916;282;43314;-39
2023/05/13 15:34:45;;;;;;;3.90;2.00;;;;;;;;;;107915;282;40051;-38